Weather observations for the past three days for
Hulett Municipal Airport
Metric (Imperial)
Date Time (mdt) Wind (kph) Vis. (km) Weather Sky Cond. Temperature (ºC) Relative Humidity Wind Chill (°C) Heat Index (°C) Pressure Precipitation (cm)
Air Dwpt 6 hour altimeter (cm) sea level (mb) 1 hr 3 hr 6 hr
Max. Min.
09 00:55 SW 15 16.09 Mostly Cloudy SCT080 BKN095 BKN110 11 1 50% 75.77 0.0
09 00:35 SW 15 16.09 Partly Cloudy SCT075 SCT095 11 2 54% 75.77 0.0
09 00:15 SW 13 16.09 Fair CLR 10 2 58% 8 75.77 0.0
08 23:55 SW 13 16.09 Fair CLR 10 1 54% 8 75.77 0.0
08 23:35 S 13 16.09 Fair CLR 10 1 54% 8 75.77 0.0
08 23:15 SW 13 16.09 Fair CLR 9 1 58% 7 75.79 0.0
08 22:55 S 13 16.09 Fair CLR 7 1 66% 5 75.79 0.0
08 22:35 S 15 16.09 Fair CLR 9 1 58% 7 75.79 0.0
08 22:15 S 13 16.09 Fair CLR 10 1 54% 8 75.79 0.0
08 21:55 S 11 16.09 Partly Cloudy SCT110 11 1 50% 75.82 0.0
08 21:35 S 11 16.09 Partly Cloudy SCT110 12 1 47% 75.82 0.0
08 21:15 S 11 16.09 Partly Cloudy SCT110 12 1 47% 75.82 0.0
08 20:55 S 7 16.09 Mostly Cloudy BKN110 13 1 44% 75.82 0.0
08 20:35 Calm 16.09 Fair CLR 16 0 34% 75.79 0.0
08 20:15 Calm 16.09 Partly Cloudy SCT110 16 0 34% 75.79 0.0
08 19:55 Calm 16.09 Partly Cloudy SCT110 17 0 32% 75.79 0.0
08 19:35 Calm 16.09 Partly Cloudy SCT080 17 0 32% 75.79 0.0
08 19:15 N 7 16.09 Partly Cloudy SCT080 18 0 30% 75.79 0.0
08 18:55 W 9 16.09 Partly Cloudy SCT090 18 0 30% 75.79 0.0
08 18:35 SW 7 16.09 Mostly Cloudy BKN090 BKN110 18 0 30% 75.82 0.0
08 18:15 W 9 16.09 Mostly Cloudy SCT090 BKN120 18 -1 28% 75.84 0.0
08 17:55 W 13 16.09 Partly Cloudy SCT090 SCT120 20 -1 24% 75.84 0.0
08 17:35 W 11 16.09 Mostly Cloudy SCT090 BKN120 20 -1 24% 75.87 0.0
08 17:15 W 13 16.09 Partly Cloudy SCT090 18 -1 28% 75.87 0.0
08 16:55 NW 7 16.09 Partly Cloudy SCT090 SCT110 19 -1 26% 75.9 0.0
08 16:35 NW 11 G 17 16.09 Mostly Cloudy SCT090 BKN110 19 -1 26% 75.9 0.0
08 16:15 N 13 16.09 Mostly Cloudy BKN100 BKN120 18 -1 28% 75.92 0.0
08 15:55 NW 15 16.09 Mostly Cloudy BKN100 19 -1 26% 75.95 0.0
08 15:35 W 13 16.09 Partly Cloudy SCT080 19 -1 26% 75.95 0.0
08 15:15 NW 11 G 26 16.09 Partly Cloudy SCT090 18 -2 26% 75.97 0.0
08 14:55 N 11 G 26 16.09 Fair CLR 20 -1 24% 76 0.0
08 14:35 NW 19 G 31 16.09 Fair CLR 18 -1 28% 76 0.0
08 14:15 NW 11 G 26 16.09 Partly Cloudy SCT080 SCT090 18 -1 28% 76.02 0.0
08 13:55 NW 13 G 28 16.09 Partly Cloudy SCT080 SCT090 18 -1 28% 76.02 0.0
08 13:35 NW 9 G 33 16.09 Partly Cloudy SCT080 SCT090 18 0 30% 76.05 0.0
08 13:15 NW 13 16.09 Mostly Cloudy SCT080 BKN100 18 0 30% 76.05 0.0
08 12:55 NW 13 16.09 Mostly Cloudy BKN100 18 0 30% 76.07 0.0
08 12:35 N 24 16.09 Mostly Cloudy SCT070 BKN100 17 0 32% 76.07 0.0
08 12:15 NW 15 G 31 16.09 Partly Cloudy SCT070 SCT080 18 0 30% 76.1 0.0
08 11:55 NW 15 G 28 16.09 Partly Cloudy SCT060 SCT080 SCT090 17 0 32% 76.1 0.0
08 11:35 NW 15 G 28 16.09 Partly Cloudy SCT060 17 1 34% 76.1 0.0
08 11:15 N 24 G 31 16.09 Partly Cloudy SCT060 17 1 34% 76.1 0.0
08 10:55 NW 17 16.09 Partly Cloudy SCT060 16 3 42% 76.12 0.0
08 10:35 W 17 16.09 Fair CLR 16 3 42% 76.12 0.0
08 10:15 W 15 16.09 Fair CLR 15 4 48% 76.12 0.0
08 09:55 NW 13 16.09 Fair CLR 15 4 48% 76.12 0.0
08 09:35 NW 6 16.09 Fair CLR 15 5 51% 76.12 0.0
08 09:15 W 11 16.09 Fair CLR 13 5 59% 76.12 0.0
08 08:55 W 11 16.09 Fair CLR 13 5 59% 76.12 0.0
08 08:35 W 9 16.09 Fair CLR 11 4 62% 76.15 0.0
08 08:15 SW 13 16.09 Fair CLR 11 5 67% 76.12 0.0
08 07:55 SW 15 16.09 Partly Cloudy SCT100 10 5 71% 8 76.12 0.0
08 07:35 SW 15 16.09 Mostly Cloudy BKN100 10 4 67% 8 76.1 0.0
08 07:15 SW 13 16.09 Partly Cloudy SCT100 8 4 76% 6 76.12 0.0
08 06:55 SW 15 16.09 Fair CLR 8 3 71% 6 76.07 0.0
08 06:35 SW 13 16.09 Partly Cloudy SCT100 7 3 76% 5 76.07 0.0
08 06:15 SW 15 16.09 Mostly Cloudy BKN100 7 3 76% 5 76.05 0.0
08 05:55 SW 13 16.09 Fair CLR 6 3 81% 4 76.05 0.0
08 05:35 SW 17 16.09 Fair CLR 6 3 81% 3 76.05 0.0
08 05:15 SW 15 16.09 Fair CLR 6 3 81% 3 76.05 0.0
08 04:55 SW 15 16.09 Fair CLR 6 3 81% 3 76.05 0.0
08 04:35 SW 15 16.09 Fair CLR 6 3 81% 3 76.05 0.0
08 04:15 SW 13 16.09 Fair CLR 6 3 81% 4 76.05 0.0
08 03:55 SW 15 16.09 Fair CLR 5 2 81% 2 76.02 0.0
08 03:35 S 13 16.09 Fair CLR 5 2 81% 2 76.02 0.0
08 03:15 S 15 16.09 Partly Cloudy SCT100 5 3 87% 2 76.02 0.0
08 02:55 SW 11 16.09 Mostly Cloudy BKN100 7 4 81% 5 76.02 0.0
08 02:35 SW 11 16.09 Mostly Cloudy SCT075 BKN090 7 4 81% 5 76.02 0.0
08 02:15 SW 13 16.09 Fair CLR 6 3 81% 4 76.02 0.0
08 01:55 SW 11 16.09 Partly Cloudy SCT085 6 3 81% 4 76.02 0.0
08 01:35 SW 11 16.09 Fair CLR 6 3 81% 4 76.02 0.0
08 01:15 SW 13 16.09 Fair CLR 7 4 81% 5 76.02 0.0
08 00:55 SW 11 16.09 Fair CLR 7 4 81% 5 76.05 0.0
08 00:35 SW 15 16.09 Fair CLR 6 4 87% 3 76.02 0.0
08 00:15 SW 13 16.09 Fair CLR 6 4 87% 4 76.02 0.0
07 23:55 SW 13 16.09 Fair CLR 5 3 87% 2 76.02 0.0
07 23:35 S 13 16.09 Fair CLR 7 5 87% 5 76.02 0.0
07 23:15 S 13 16.09 Fair CLR 7 5 87% 5 76.02 0.0
07 22:55 S 11 16.09 Fair CLR 7 5 87% 5 76.02 0.0
07 22:35 SW 9 16.09 Fair CLR 7 5 87% 5 76.02 0.0
07 22:15 SW 9 16.09 Fair CLR 9 5 76% 8 76.02 0.0
07 21:55 SW 11 16.09 Fair CLR 10 6 76% 9 76.02 0.0
07 21:35 SW 9 16.09 Fair CLR 9 6 82% 8 76.02 0.0
07 21:15 SW 11 16.09 Fair CLR 9 6 82% 8 76 0.0
07 20:55 SW 15 16.09 Partly Cloudy SCT065 10 6 76% 8 76 0.0
07 20:35 SW 13 16.09 Mostly Cloudy SCT065 BKN085 10 6 76% 8 75.97 0.0
07 20:15 S 15 16.09 Overcast BKN065 BKN075 OVC085 11 7 77% 75.95 0.0
07 19:55 SW 11 16.09 Overcast BKN065 OVC080 11 6 72% 75.95 0.0
07 19:35 SW 7 16.09 Overcast SCT065 OVC080 12 6 67% 75.92 0.0
07 19:15 SW 11 16.09 Overcast SCT065 OVC080 12 6 67% 75.9 0.0
07 18:55 SW 11 16.09 Overcast SCT065 OVC080 13 6 63% 75.9 0.0
07 18:35 SW 15 16.09 Mostly Cloudy SCT070 BKN075 13 5 59% 75.9 0.0
07 18:15 SW 11 16.09 Partly Cloudy SCT070 13 6 63% 75.87 0.0
07 17:55 SW 11 16.09 Partly Cloudy SCT070 13 6 63% 75.9 0.0
07 17:35 SW 13 16.09 Fair CLR 12 6 67% 75.9 0.0
07 17:15 SW 13 16.09 Partly Cloudy SCT065 SCT095 SCT120 12 6 67% 75.9 0.0
07 16:55 SW 15 16.09 Overcast BKN065 BKN085 OVC120 11 6 72% 75.9 0.0
07 16:35 SW 15 16.09 Overcast SCT055 BKN065 OVC075 10 5 71% 8 75.92 0.0
07 16:15 SW 13 16.09 Overcast SCT065 OVC075 10 5 71% 8 75.9 0.0
07 15:55 SW 11 16.09 Overcast OVC075 10 6 76% 9 75.9 0.0
07 15:35 SW 15 16.09 Overcast BKN080 BKN090 OVC110 10 6 76% 8 75.9 0.0
07 15:15 W 19 16.09 Overcast SCT080 OVC090 11 6 72% 75.9 0.0
07 14:55 SW 7 16.09 Overcast SCT024 BKN075 OVC100 11 6 72% 75.9 0.0 0.3
07 14:35 SE 9 G 26 4.83 Thunderstorm Heavy Rain SCT026 BKN042 OVC070 11 6 72% 75.9 0.0 0.28
07 14:15 W 9 16.09 Overcast SCT012 SCT026 OVC070 12 7 72% 75.87 0.0
07 13:55 W 6 G 30 4.83 Heavy Rain SCT012 SCT023 OVC046 11 6 72% 75.9 0.0 0.15
07 13:35 W 13 16.09 Overcast BKN048 OVC055 15 3 45% 75.87 0.0
07 13:15 W 15 G 26 16.09 Thunderstorm in Vicinity BKN055 OVC070 15 2 42% 75.87 0.0
07 12:55 W 17 G 31 16.09 Mostly Cloudy SCT050 SCT065 BKN090 16 1 36% 75.87 0.0
07 12:35 W 22 G 33 16.09 Mostly Cloudy SCT050 SCT075 BKN090 16 1 36% 75.87 0.0
07 12:15 W 15 G 26 16.09 Mostly Cloudy BKN050 BKN075 BKN090 16 1 36% 75.87 0.0
07 11:55 W 11 16.09 Overcast BKN050 BKN060 OVC075 15 0 36% 75.9 0.0
07 11:35 SW 13 16.09 Mostly Cloudy BKN050 BKN070 BKN095 15 0 36% 75.9 0.0
07 11:15 SW 19 16.09 Mostly Cloudy SCT048 SCT050 BKN070 15 0 36% 75.9 0.0
07 10:55 SW 13 16.09 Overcast BKN048 BKN050 OVC070 13 -1 38% 75.9 0.0
07 10:35 SW 7 16.09 Overcast SCT055 OVC070 13 -1 38% 75.9 0.0
07 10:15 W 9 16.09 Mostly Cloudy SCT055 BKN070 BKN100 13 -1 38% 75.9 0.0
07 09:55 W 9 16.09 Mostly Cloudy SCT065 SCT080 BKN100 12 -1 41% 75.9 0.0
07 09:35 SW 9 16.09 Overcast SCT065 BKN080 OVC090 10 -3 40% 9 75.92 0.0
07 09:15 SW 7 16.09 Overcast SCT065 OVC090 9 -3 43% 8 75.92 0.0
07 08:55 SW 11 16.09 Overcast SCT060 SCT080 OVC100 8 -3 46% 6 75.92 0.0
07 08:35 W 6 16.09 Overcast SCT070 OVC100 7 -3 49% 75.92 0.0
07 08:15 Calm 16.09 Overcast OVC100 9 -2 46% 75.9 0.0
07 07:55 Calm 16.09 Overcast OVC100 6 -4 49% 75.9 0.0
07 07:35 S 6 16.09 Partly Cloudy SCT100 10 -6 32% 75.9 0.0
07 07:15 Calm 16.09 Fair CLR 6 -4 49% 75.9 0.0
07 06:55 Calm 16.09 Fair CLR 2 -5 60% 75.9 0.0
07 06:35 S 9 16.09 Fair CLR 1 -5 65% -2 75.87 0.0
07 06:15 Calm 16.09 Fair CLR 0 -7 60% 75.87 0.0
07 05:55 S 11 16.09 Partly Cloudy SCT120 0 -7 60% -3 75.82 0.0
07 05:35 Calm 16.09 Partly Cloudy SCT120 1 -7 56% 75.82 0.0
07 05:15 S 7 16.09 Fair CLR 0 -7 60% -2 75.82 0.0
07 04:55 SW 11 16.09 Fair CLR 0 -7 60% -3 75.84 0.0
07 04:35 S 11 16.09 Fair CLR -1 -7 64% -4 75.82 0.0
07 04:15 S 7 16.09 Fair CLR 0 -7 60% -2 75.82 0.0
07 03:55 SW 9 16.09 Fair CLR 0 -7 60% -3 75.82 0.0
07 03:35 Calm 16.09 Fair CLR 2 -8 48% 75.79 0.0
07 03:15 Calm 16.09 Fair CLR 1 -8 51% 75.79 0.0
07 02:55 Calm 16.09 Fair CLR 2 -8 48% 75.79 0.0
07 02:35 Calm 16.09 Fair CLR 2 -8 48% 75.79 0.0
07 02:15 Calm 16.09 Fair CLR 1 -8 51% 75.79 0.0
07 01:55 SW 6 16.09 Fair CLR 0 -7 60% 75.79 0.0
07 01:35 SW 11 16.09 Fair CLR 1 -7 56% -2 75.79 0.0
07 01:15 S 11 16.09 Fair CLR 3 -8 45% 0 75.79 0.0
07 00:55 S 11 16.09 Fair CLR 1 -7 56% -2 75.84 0.0
07 00:35 SW 11 16.09 Fair CLR 2 -8 48% -1 75.84 0.0
07 00:15 SW 9 16.09 Fair CLR 2 -8 48% -0 75.84 0.0
06 23:55 S 13 16.09 Fair CLR 1 -7 56% -2 75.84 0.0
06 23:35 S 11 16.09 Fair CLR 1 -7 56% -2 75.84 0.0
06 23:15 S 11 16.09 Fair CLR 2 -7 52% -1 75.87 0.0
06 22:55 S 9 16.09 Fair CLR 3 -8 45% 1 75.87 0.0
06 22:35 S 11 16.09 Fair CLR 5 -8 39% 3 75.87 0.0
06 22:15 S 11 16.09 Fair CLR 3 -7 48% 0 75.87 0.0
06 21:55 S 11 16.09 Fair CLR 5 -8 39% 3 75.87 0.0
06 21:35 S 9 16.09 Fair CLR 6 -8 36% 4 75.87 0.0
06 21:15 S 7 16.09 Fair CLR 7 -8 34% 6 75.9 0.0
06 20:55 SW 7 16.09 Partly Cloudy SCT120 7 -8 34% 6 75.9 0.0
06 20:35 SW 6 16.09 Partly Cloudy SCT120 9 -9 27% 75.9 0.0
06 20:15 W 7 16.09 Partly Cloudy SCT120 9 -9 27% 8 75.9 0.0
06 19:55 W 11 16.09 Partly Cloudy SCT120 10 -10 24% 9 75.9 0.0
06 19:35 W 7 16.09 Fair CLR 11 -9 24% 75.95 0.0
06 19:15 W 13 G 28 16.09 Fair CLR 11 -10 22% 75.95 0.0
06 18:55 W 19 G 26 16.09 Fair CLR 11 -9 24% 75.95 0.0
06 18:35 W 20 G 31 16.09 Fair CLR 11 -10 22% 75.95 0.0
06 18:15 W 15 16.09 Fair CLR 11 -11 20% 75.95 0.0
06 17:55 W 26 G 35 16.09 Fair CLR 12 -11 19% 75.95 0.0
06 17:35 W 22 G 31 16.09 Fair CLR 12 -12 18% 75.97 0.0
06 17:15 W 24 G 39 16.09 Fair CLR 12 -12 18% 75.97 0.0
06 16:55 W 17 G 30 16.09 Fair CLR 12 -10 21% 76 0.0
06 16:35 W 24 G 35 16.09 Fair CLR 11 -10 22% 76.05 0.0
06 16:15 W 22 G 30 16.09 Fair CLR 11 -11 20% 76.05 0.0
06 15:55 SW 22 G 31 16.09 Fair CLR 11 -10 22% 76.07 0.0
06 15:35 SW 19 16.09 Fair CLR 11 -10 22% 76.1 0.0
06 15:15 W 20 G 30 16.09 Fair CLR 11 -9 24% 76.12 0.0
06 14:55 W 26 G 33 16.09 Fair CLR 11 -10 22% 76.17 0.0
06 14:35 W 19 G 31 16.09 Fair CLR 11 -9 24% 76.17 0.0
06 14:15 SW 15 16.09 Fair CLR 10 -9 26% 8 76.2 0.0
06 13:55 W 13 G 26 16.09 Fair CLR 10 -10 24% 8 76.23 0.0
06 13:35 W 7 G 15 16.09 Fair CLR 9 -9 27% 8 76.23 0.0
06 13:15 Calm 16.09 Fair CLR 8 -9 29% 76.28 0.0
06 12:55 W 22 G 30 16.09 Fair CLR 8 -9 29% 5 76.3 0.0
06 12:35 W 13 G 33 16.09 Fair CLR 8 -10 27% 6 76.33 0.0
06 12:15 NW 9 16.09 Fair CLR 7 -10 29% 5 76.35 0.0
06 11:55 W 15 G 26 16.09 Fair CLR 7 -10 29% 5 76.38 0.0
06 11:35 N 15 G 30 16.09 Fair CLR 7 -10 29% 5 76.38 0.0
06 11:15 W 13 16.09 Fair CLR 6 -10 31% 4 76.38 0.0
06 10:55 W 19 16.09 Fair CLR 6 -10 31% 3 76.4 0.0
06 10:35 W 11 16.09 Fair CLR 6 -9 34% 4 76.4 0.0
06 09:55 NW 13 G 28 16.09 Fair CLR 5 -10 33% 2 76.43 0.0
06 09:35 SW 15 G 26 16.09 Fair CLR 4 -10 36% 1 76.43 0.0
06 09:15 W 11 16.09 Fair CLR 3 -8 45% 0 76.45 0.0
06 08:55 W 13 16.09 Fair CLR 3 -7 48% 0 76.45 0.0
06 08:35 SW 11 16.09 Fair CLR 2 -7 52% -1 76.45 0.0
06 08:15 SW 9 16.09 Fair CLR 1 -7 56% -2 76.48 0.0
06 07:55 SW 11 16.09 Fair CLR 0 -7 60% -3 76.45 0.0
06 07:35 SW 13 16.09 Fair CLR 0 -7 60% -4 76.45 0.0
06 07:15 SW 15 16.09 Fair CLR 0 -7 60% -4 76.45 0.0
06 06:55 SW 11 16.09 Fair CLR -2 -7 69% -6 76.45 0.0
06 06:35 S 13 16.09 Fair CLR -3 -8 69% -7 76.43 0.0
06 06:15 S 15 16.09 Fair CLR -5 -8 80% -10 76.43 0.0
06 05:55 S 15 16.09 Fair CLR -5 -9 74% -10 76.43 0.0
06 05:35 S 15 16.09 Fair CLR -5 -9 74% -10 76.43 0.0
06 05:15 S 13 16.09 Fair CLR -6 -9 80% -11 76.43 0.0
06 04:55 S 13 16.09 Fair CLR -5 -9 74% -10 76.43 0.0
06 04:35 S 15 16.09 Fair CLR -5 -9 74% -10 76.43 0.0
06 04:15 S 13 16.09 Fair CLR -6 -9 80% -11 76.43 0.0
06 03:55 S 13 16.09 Fair CLR -6 -9 80% -11 76.43 0.0
06 03:35 S 11 16.09 Fair CLR -6 -10 74% -10 76.4 0.0
06 03:15 SW 13 16.09 Fair CLR -6 -10 74% -11 76.4 0.0
06 02:55 S 11 16.09 Fair CLR -5 -9 74% -9 76.4 0.0
06 02:35 SW 11 16.09 Fair CLR -6 -10 74% -10 76.4 0.0
06 02:15 SW 11 16.09 Fair CLR -6 -9 80% -10 76.4 0.0
06 01:55 SW 11 16.09 Fair CLR -5 -9 74% -9 76.4 0.0
06 01:35 SW 11 16.09 Fair CLR -4 -9 69% -8 76.4 0.0
06 01:15 SW 11 16.09 Fair CLR -4 -9 69% -8 76.4 0.0
Date Time (mdt) Wind (kph) Vis. (km) Weather Sky Cond. Air Dwpt Max. Min. Relative Humidity Wind Chill (°C) Heat Index (°C) altimeter (cm) sea level (mb) 1 hr 3 hr 6 hr
6 hour
Temperature (ºC) Pressure Precipitation (cm)